Time;durP1;ratioP1;P1;durP2;ratioP2;P2;SDS_P1;SDS_P2;PMS_P1;PMS_P2;Temp;Humidity;BMP_temperature;BMP_pressure;BME280_temperature;BME280_humidity;BME280_pressure;Samples;Min_cycle;Max_cycle;Signal;HPM_P1;HPM_P2
2022/07/16 00:01:24;;;;;;;3.13;2.30;;;;;;;;;;5007577;28;20095;-53
2022/07/16 00:04:02;;;;;;;4.88;1.92;;;;;;;;;;5006780;28;20490;-52
2022/07/16 00:06:29;;;;;;;2.28;1.90;;;;;;;;;;5009084;28;20038;-54
2022/07/16 00:08:55;;;;;;;3.17;1.70;;;;;;;;;;5012935;28;20030;-54
2022/07/16 00:11:22;;;;;;;4.00;2.13;;;;;;;;;;5009792;28;20025;-54
2022/07/16 00:13:49;;;;;;;4.00;1.92;;;;;;;;;;5006926;28;20065;-54
2022/07/16 00:16:15;;;;;;;3.83;2.35;;;;;;;;;;5010436;28;20025;-55
2022/07/16 00:21:26;;;;;;;7.28;2.25;;;;;;;;;;5001288;28;20029;-54
2022/07/16 00:23:52;;;;;;;3.47;1.75;;;;;;;;;;5003589;28;20030;-55
2022/07/16 00:26:19;;;;;;;4.00;2.00;;;;;;;;;;5009703;28;20033;-54
2022/07/16 00:28:45;;;;;;;4.68;1.88;;;;;;;;;;5012416;28;20045;-57
2022/07/16 00:31:11;;;;;;;3.22;2.00;;;;;;;;;;5010020;28;20021;-52
2022/07/16 00:33:37;;;;;;;3.72;2.05;;;;;;;;;;5009484;28;20198;-48
2022/07/16 00:36:03;;;;;;;3.03;1.60;;;;;;;;;;5008442;28;20014;-54
2022/07/16 00:38:29;;;;;;;4.03;1.90;;;;;;;;;;5011046;28;20026;-57
2022/07/16 00:40:55;;;;;;;5.38;2.50;;;;;;;;;;5010513;28;20036;-49
2022/07/16 00:43:22;;;;;;;3.53;2.17;;;;;;;;;;5008414;28;20030;-55
2022/07/16 00:45:48;;;;;;;3.70;1.58;;;;;;;;;;5008575;28;20145;-56
2022/07/16 00:48:14;;;;;;;4.10;2.10;;;;;;;;;;5007632;28;20423;-55
2022/07/16 00:50:40;;;;;;;2.20;1.60;;;;;;;;;;5003956;28;20061;-55
2022/07/16 00:53:09;;;;;;;3.15;1.60;;;;;;;;;;5006640;28;20616;-55
2022/07/16 00:55:35;;;;;;;3.35;1.90;;;;;;;;;;5008730;28;20104;-55
2022/07/16 00:58:01;;;;;;;2.75;1.60;;;;;;;;;;5010324;28;20033;-55
2022/07/16 01:00:27;;;;;;;2.92;2.03;;;;;;;;;;5010737;28;20041;-54
2022/07/16 01:02:53;;;;;;;3.03;1.58;;;;;;;;;;5007693;28;20022;-58
2022/07/16 01:05:19;;;;;;;3.95;2.40;;;;;;;;;;5006780;28;20692;-53
2022/07/16 01:07:46;;;;;;;3.22;1.58;;;;;;;;;;5011214;28;20112;-53
2022/07/16 01:10:13;;;;;;;4.70;2.20;;;;;;;;;;5008633;28;20030;-53
2022/07/16 01:12:39;;;;;;;2.75;1.70;;;;;;;;;;5008881;28;20034;-53
2022/07/16 01:15:05;;;;;;;2.83;2.00;;;;;;;;;;5005797;28;20045;-53
2022/07/16 01:17:32;;;;;;;2.60;1.75;;;;;;;;;;5003233;28;20541;-53
2022/07/16 01:19:58;;;;;;;2.75;1.60;;;;;;;;;;5008984;28;20518;-54
2022/07/16 01:22:24;;;;;;;2.78;1.90;;;;;;;;;;5010613;28;20045;-54
2022/07/16 01:24:51;;;;;;;4.90;1.98;;;;;;;;;;5008768;28;20018;-53
2022/07/16 01:27:18;;;;;;;4.13;1.98;;;;;;;;;;5005462;28;20034;-50
2022/07/16 01:29:44;;;;;;;4.50;2.05;;;;;;;;;;5010939;28;20116;-53
2022/07/16 01:32:10;;;;;;;2.35;1.67;;;;;;;;;;5006238;28;20478;-53
2022/07/16 01:34:37;;;;;;;2.30;1.80;;;;;;;;;;5006015;28;20022;-51
2022/07/16 01:37:04;;;;;;;3.97;2.20;;;;;;;;;;5008726;28;20367;-50
2022/07/16 01:39:31;;;;;;;3.83;2.15;;;;;;;;;;5007678;28;20034;-51
2022/07/16 01:41:58;;;;;;;2.45;1.70;;;;;;;;;;5008934;28;20546;-53
2022/07/16 01:44:25;;;;;;;4.05;1.80;;;;;;;;;;5008882;28;20097;-53
2022/07/16 01:46:51;;;;;;;3.00;1.70;;;;;;;;;;5009470;28;20030;-50
2022/07/16 01:49:17;;;;;;;3.20;1.95;;;;;;;;;;5005557;28;20077;-51
2022/07/16 01:51:43;;;;;;;2.50;1.58;;;;;;;;;;4994187;28;20054;-50
2022/07/16 01:54:10;;;;;;;5.30;1.70;;;;;;;;;;4988702;28;20023;-50
2022/07/16 01:56:35;;;;;;;3.50;2.13;;;;;;;;;;4983929;28;20018;-51
2022/07/16 01:59:02;;;;;;;4.00;1.90;;;;;;;;;;4988018;28;20364;-54
2022/07/16 02:01:28;;;;;;;4.35;1.95;;;;;;;;;;4986455;28;20594;-49
2022/07/16 02:03:54;;;;;;;4.30;1.80;;;;;;;;;;4987752;28;20379;-55
2022/07/16 02:06:20;;;;;;;2.55;1.90;;;;;;;;;;4985175;28;20035;-50
2022/07/16 02:08:46;;;;;;;2.75;2.17;;;;;;;;;;4989839;28;20030;-49
2022/07/16 02:11:12;;;;;;;2.88;1.55;;;;;;;;;;4986759;28;20113;-53
2022/07/16 02:13:38;;;;;;;1.73;1.50;;;;;;;;;;4995274;28;20105;-51
2022/07/16 02:16:05;;;;;;;2.65;1.55;;;;;;;;;;4994006;28;20026;-51
2022/07/16 02:18:31;;;;;;;4.60;1.75;;;;;;;;;;4991155;28;20026;-51
2022/07/16 02:20:57;;;;;;;3.10;1.88;;;;;;;;;;4991023;28;20096;-47
2022/07/16 02:23:23;;;;;;;4.68;1.67;;;;;;;;;;4990466;28;20031;-49
2022/07/16 02:25:49;;;;;;;2.42;1.60;;;;;;;;;;4993503;28;20039;-51
2022/07/16 02:28:15;;;;;;;2.63;1.50;;;;;;;;;;4991377;28;20494;-51
2022/07/16 02:30:42;;;;;;;2.90;1.80;;;;;;;;;;4991159;28;20042;-50
2022/07/16 02:33:09;;;;;;;2.67;1.60;;;;;;;;;;4988602;28;20423;-49
2022/07/16 02:35:35;;;;;;;3.35;1.77;;;;;;;;;;4990334;28;20022;-48
2022/07/16 02:38:02;;;;;;;2.88;1.50;;;;;;;;;;4989926;28;20026;-50
2022/07/16 02:40:28;;;;;;;2.40;1.70;;;;;;;;;;4991918;28;20387;-51
2022/07/16 02:42:55;;;;;;;2.65;1.88;;;;;;;;;;4991584;28;20081;-47
2022/07/16 02:45:21;;;;;;;2.53;1.50;;;;;;;;;;4989466;28;20023;-49
2022/07/16 02:47:47;;;;;;;2.95;1.50;;;;;;;;;;4994687;28;20105;-50
2022/07/16 02:50:13;;;;;;;3.97;1.73;;;;;;;;;;4992192;28;20061;-52
2022/07/16 02:52:39;;;;;;;3.33;1.58;;;;;;;;;;5017816;28;20498;-51
2022/07/16 02:55:05;;;;;;;3.35;1.60;;;;;;;;;;5007739;28;20034;-49
2022/07/16 02:57:31;;;;;;;3.15;1.70;;;;;;;;;;5009046;28;20898;-53
2022/07/16 02:59:57;;;;;;;3.63;1.50;;;;;;;;;;5013458;28;20033;-53
2022/07/16 03:02:23;;;;;;;2.65;1.50;;;;;;;;;;5013474;28;20026;-50
2022/07/16 03:04:49;;;;;;;2.55;1.77;;;;;;;;;;5021886;28;20025;-52
2022/07/16 03:07:15;;;;;;;2.08;1.48;;;;;;;;;;5013356;28;21991;-48
2022/07/16 03:09:41;;;;;;;4.13;1.83;;;;;;;;;;5014683;28;20030;-53
2022/07/16 03:12:07;;;;;;;2.53;1.73;;;;;;;;;;5010464;28;20026;-52
2022/07/16 03:14:33;;;;;;;2.03;1.60;;;;;;;;;;5010162;28;20030;-53
2022/07/16 03:16:59;;;;;;;2.72;1.80;;;;;;;;;;5013461;28;20036;-55
2022/07/16 03:19:25;;;;;;;3.53;1.80;;;;;;;;;;5011170;28;20038;-52
2022/07/16 03:21:51;;;;;;;4.45;2.10;;;;;;;;;;5012828;28;20038;-51
2022/07/16 03:24:17;;;;;;;2.83;1.80;;;;;;;;;;5011579;28;20061;-54
2022/07/16 03:26:43;;;;;;;4.05;1.83;;;;;;;;;;5013209;28;20122;-50
2022/07/16 03:29:09;;;;;;;2.60;1.75;;;;;;;;;;5017570;28;20041;-54
2022/07/16 03:31:35;;;;;;;2.50;1.63;;;;;;;;;;5015988;28;20029;-49
2022/07/16 03:34:01;;;;;;;2.00;1.40;;;;;;;;;;5010891;28;20025;-51
2022/07/16 03:36:27;;;;;;;4.07;1.65;;;;;;;;;;5009356;28;20045;-53
2022/07/16 03:39:05;;;;;;;4.22;2.35;;;;;;;;;;5009695;28;20022;-54
2022/07/16 03:41:32;;;;;;;3.40;1.55;;;;;;;;;;5010885;28;20101;-49
2022/07/16 03:44:01;;;;;;;2.83;1.65;;;;;;;;;;5014100;28;20470;-48
2022/07/16 03:46:28;;;;;;;2.95;1.38;;;;;;;;;;5010511;28;20080;-53
2022/07/16 03:48:55;;;;;;;2.42;1.35;;;;;;;;;;5011872;28;20021;-51
2022/07/16 03:51:21;;;;;;;2.45;1.17;;;;;;;;;;5009238;28;20050;-49
2022/07/16 03:53:47;;;;;;;2.50;1.58;;;;;;;;;;5009369;28;20030;-53
2022/07/16 03:56:13;;;;;;;3.42;1.80;;;;;;;;;;5011311;28;20402;-52
2022/07/16 03:58:40;;;;;;;2.55;1.50;;;;;;;;;;5005544;28;20041;-51
2022/07/16 04:01:06;;;;;;;2.92;1.70;;;;;;;;;;5007008;28;20022;-49
2022/07/16 04:03:32;;;;;;;2.75;1.60;;;;;;;;;;5011466;28;20096;-48
2022/07/16 04:05:59;;;;;;;1.92;1.58;;;;;;;;;;5006816;28;20026;-48
2022/07/16 04:08:25;;;;;;;2.85;1.25;;;;;;;;;;5004066;28;20088;-51
2022/07/16 04:10:51;;;;;;;3.22;1.70;;;;;;;;;;5012358;28;20053;-50
2022/07/16 04:13:17;;;;;;;2.85;1.33;;;;;;;;;;5008659;28;20069;-52
2022/07/16 04:15:43;;;;;;;4.90;2.28;;;;;;;;;;5007894;28;20089;-53
2022/07/16 04:18:09;;;;;;;2.10;1.40;;;;;;;;;;5005158;28;20041;-51
2022/07/16 04:20:35;;;;;;;2.40;1.58;;;;;;;;;;5008913;28;20104;-49
2022/07/16 04:23:01;;;;;;;2.65;1.38;;;;;;;;;;5008484;28;20065;-49
2022/07/16 04:25:27;;;;;;;2.67;1.58;;;;;;;;;;5009142;28;20041;-53
2022/07/16 04:27:53;;;;;;;2.80;1.70;;;;;;;;;;5010855;28;20475;-49
2022/07/16 04:30:19;;;;;;;2.25;1.40;;;;;;;;;;5009432;28;20037;-49
2022/07/16 04:32:45;;;;;;;3.60;1.55;;;;;;;;;;5011425;28;20443;-52
2022/07/16 04:35:12;;;;;;;3.33;1.88;;;;;;;;;;5000556;28;20049;-52
2022/07/16 04:37:39;;;;;;;2.20;1.63;;;;;;;;;;5007268;28;20028;-53
2022/07/16 04:40:05;;;;;;;3.50;1.65;;;;;;;;;;5010164;28;20083;-53
2022/07/16 04:42:31;;;;;;;2.17;1.42;;;;;;;;;;5008811;28;20057;-52
2022/07/16 04:44:57;;;;;;;2.55;1.60;;;;;;;;;;5005173;28;20466;-50
2022/07/16 04:47:23;;;;;;;2.13;1.38;;;;;;;;;;5010523;28;20038;-54
2022/07/16 04:49:49;;;;;;;1.73;1.48;;;;;;;;;;5009799;28;20087;-49
2022/07/16 04:52:15;;;;;;;1.60;1.40;;;;;;;;;;4992351;28;20050;-51
2022/07/16 04:54:41;;;;;;;5.78;1.75;;;;;;;;;;4985956;28;20041;-50
2022/07/16 04:57:07;;;;;;;3.55;1.80;;;;;;;;;;4991659;28;20065;-54
2022/07/16 04:59:33;;;;;;;3.05;1.58;;;;;;;;;;4993000;28;20391;-51
2022/07/16 05:04:44;;;;;;;2.60;1.50;;;;;;;;;;4989780;28;20080;-51
2022/07/16 05:07:10;;;;;;;2.15;1.73;;;;;;;;;;4988527;28;20026;-50
2022/07/16 05:09:36;;;;;;;3.05;1.58;;;;;;;;;;4989152;28;20256;-50
2022/07/16 05:12:02;;;;;;;2.10;1.75;;;;;;;;;;4983632;28;20403;-49
2022/07/16 05:14:28;;;;;;;4.85;1.80;;;;;;;;;;4989338;28;20030;-54
2022/07/16 05:16:56;;;;;;;3.75;2.40;;;;;;;;;;4990106;28;20519;-50
2022/07/16 05:19:22;;;;;;;3.75;1.80;;;;;;;;;;4988568;28;20043;-52
2022/07/16 05:21:48;;;;;;;6.55;2.15;;;;;;;;;;4989425;28;20198;-51
2022/07/16 05:24:14;;;;;;;3.22;2.22;;;;;;;;;;4990801;28;20054;-51
2022/07/16 05:26:40;;;;;;;2.72;1.95;;;;;;;;;;4989222;28;20041;-52
2022/07/16 05:29:06;;;;;;;2.90;2.13;;;;;;;;;;4985035;28;20093;-52
2022/07/16 05:31:32;;;;;;;2.38;2.03;;;;;;;;;;4987360;28;20459;-51
2022/07/16 05:33:58;;;;;;;2.72;1.73;;;;;;;;;;4989970;28;20026;-49
2022/07/16 05:36:24;;;;;;;3.45;2.00;;;;;;;;;;4988704;28;20410;-49
2022/07/16 05:38:50;;;;;;;3.45;1.95;;;;;;;;;;4989029;28;20427;-50
2022/07/16 05:41:16;;;;;;;3.08;1.70;;;;;;;;;;4987693;28;20363;-53
2022/07/16 05:43:42;;;;;;;2.90;2.13;;;;;;;;;;4987475;28;20058;-50
2022/07/16 05:46:08;;;;;;;4.53;2.47;;;;;;;;;;4985699;28;20467;-49
2022/07/16 05:48:34;;;;;;;3.45;1.90;;;;;;;;;;4992511;28;20049;-51
2022/07/16 05:51:01;;;;;;;3.40;1.70;;;;;;;;;;4998948;28;20056;-50
2022/07/16 05:53:26;;;;;;;3.03;2.17;;;;;;;;;;5014062;28;20026;-51
2022/07/16 05:55:53;;;;;;;3.78;2.25;;;;;;;;;;5016594;28;20399;-52
2022/07/16 05:58:18;;;;;;;5.43;2.40;;;;;;;;;;5015065;28;20433;-53
2022/07/16 06:00:44;;;;;;;3.92;2.10;;;;;;;;;;5018398;28;20033;-49
2022/07/16 06:03:10;;;;;;;3.95;2.28;;;;;;;;;;5013492;28;20021;-50
2022/07/16 06:05:36;;;;;;;3.63;2.20;;;;;;;;;;5015483;28;20054;-50
2022/07/16 06:08:03;;;;;;;2.95;2.00;;;;;;;;;;5007342;28;20617;-50
2022/07/16 06:10:29;;;;;;;4.05;2.03;;;;;;;;;;5014112;28;20038;-53
2022/07/16 06:12:55;;;;;;;4.18;2.10;;;;;;;;;;5018528;28;20243;-53
2022/07/16 06:15:21;;;;;;;3.70;2.50;;;;;;;;;;5013226;28;20112;-51
2022/07/16 06:17:47;;;;;;;2.33;2.03;;;;;;;;;;5009204;28;20030;-52
2022/07/16 06:20:13;;;;;;;4.35;2.00;;;;;;;;;;5014882;28;20037;-54
2022/07/16 06:22:40;;;;;;;3.35;1.95;;;;;;;;;;5015582;28;20026;-46
2022/07/16 06:25:06;;;;;;;3.75;2.25;;;;;;;;;;5013113;28;20034;-51
2022/07/16 06:27:32;;;;;;;2.85;2.15;;;;;;;;;;5015005;28;20352;-49
2022/07/16 06:30:05;;;;;;;3.47;2.30;;;;;;;;;;5017457;28;20033;-51
2022/07/16 06:32:31;;;;;;;3.45;1.75;;;;;;;;;;5010679;28;20030;-49
2022/07/16 06:34:58;;;;;;;2.92;1.58;;;;;;;;;;5015158;28;20033;-49
2022/07/16 06:37:24;;;;;;;3.70;2.13;;;;;;;;;;5013738;28;20407;-52
2022/07/16 06:39:50;;;;;;;8.10;1.83;;;;;;;;;;5015333;28;20172;-52
2022/07/16 06:42:16;;;;;;;3.72;2.08;;;;;;;;;;5009780;28;20097;-50
2022/07/16 06:44:42;;;;;;;1.98;1.67;;;;;;;;;;5010192;28;20018;-56
2022/07/16 06:47:08;;;;;;;3.47;2.03;;;;;;;;;;5001700;28;20399;-57
2022/07/16 06:49:34;;;;;;;6.65;2.47;;;;;;;;;;5009739;28;20070;-51
2022/07/16 06:52:00;;;;;;;4.00;1.88;;;;;;;;;;5010761;28;20053;-52
2022/07/16 06:54:26;;;;;;;4.70;2.10;;;;;;;;;;5003304;28;20022;-55
2022/07/16 06:56:52;;;;;;;4.40;2.92;;;;;;;;;;5012080;28;20092;-57
2022/07/16 06:59:18;;;;;;;4.53;2.17;;;;;;;;;;5005495;28;20034;-58
2022/07/16 07:01:44;;;;;;;6.38;2.40;;;;;;;;;;5008318;28;20042;-59
2022/07/16 07:04:10;;;;;;;4.15;2.20;;;;;;;;;;5011112;28;20101;-57
2022/07/16 07:06:36;;;;;;;6.95;2.38;;;;;;;;;;5012051;28;20582;-58
2022/07/16 07:09:02;;;;;;;4.30;2.78;;;;;;;;;;5009316;28;20018;-50
2022/07/16 07:11:28;;;;;;;8.13;2.40;;;;;;;;;;5007643;28;20692;-54
2022/07/16 07:13:54;;;;;;;3.20;1.80;;;;;;;;;;5004820;28;20077;-53
2022/07/16 07:16:20;;;;;;;6.32;2.42;;;;;;;;;;5009646;28;20506;-51
2022/07/16 07:18:46;;;;;;;3.78;1.90;;;;;;;;;;5008752;28;20036;-57
2022/07/16 07:21:12;;;;;;;5.63;2.22;;;;;;;;;;5005337;28;20030;-54
2022/07/16 07:23:38;;;;;;;4.00;2.42;;;;;;;;;;5003870;28;20022;-56
2022/07/16 07:26:04;;;;;;;8.45;2.38;;;;;;;;;;5005971;28;20557;-52
2022/07/16 07:28:31;;;;;;;3.15;2.38;;;;;;;;;;5005926;28;20036;-50
2022/07/16 07:30:57;;;;;;;7.22;2.78;;;;;;;;;;5003647;28;20154;-53
2022/07/16 07:33:23;;;;;;;4.78;2.53;;;;;;;;;;5006707;28;20124;-52
2022/07/16 07:35:49;;;;;;;5.32;2.22;;;;;;;;;;5006544;28;20046;-55
2022/07/16 07:38:15;;;;;;;3.78;2.25;;;;;;;;;;5005601;28;20101;-52
2022/07/16 07:40:41;;;;;;;5.53;2.40;;;;;;;;;;5006664;28;20820;-52
2022/07/16 07:43:07;;;;;;;4.07;2.22;;;;;;;;;;5004494;28;20093;-54
2022/07/16 07:45:33;;;;;;;6.00;1.88;;;;;;;;;;5006260;28;20037;-49
2022/07/16 07:47:59;;;;;;;3.30;1.88;;;;;;;;;;5002299;28;20378;-52
2022/07/16 07:50:26;;;;;;;4.45;2.80;;;;;;;;;;5008416;28;20057;-51
2022/07/16 07:52:52;;;;;;;5.78;1.88;;;;;;;;;;5007402;28;20069;-48
2022/07/16 07:55:18;;;;;;;7.63;2.22;;;;;;;;;;5004208;28;20601;-53
2022/07/16 07:57:44;;;;;;;3.08;1.80;;;;;;;;;;5004404;28;20041;-56
2022/07/16 08:00:10;;;;;;;4.38;2.33;;;;;;;;;;5003432;28;20030;-51
2022/07/16 08:02:37;;;;;;;4.07;1.98;;;;;;;;;;5006523;28;20078;-53
2022/07/16 08:05:03;;;;;;;5.72;2.17;;;;;;;;;;5005469;28;20033;-50
2022/07/16 08:07:29;;;;;;;5.88;1.80;;;;;;;;;;5006440;28;20046;-55
2022/07/16 08:09:55;;;;;;;3.97;1.85;;;;;;;;;;5007072;28;20541;-51
2022/07/16 08:12:21;;;;;;;4.63;1.83;;;;;;;;;;5007924;28;20034;-51
2022/07/16 08:14:47;;;;;;;4.95;1.90;;;;;;;;;;5002103;28;20592;-53
2022/07/16 08:17:13;;;;;;;3.28;1.70;;;;;;;;;;5004307;28;20034;-53
2022/07/16 08:19:39;;;;;;;3.55;1.55;;;;;;;;;;5005540;28;20463;-55
2022/07/16 08:22:05;;;;;;;3.35;1.75;;;;;;;;;;5006006;28;20025;-52
2022/07/16 08:27:16;;;;;;;3.10;1.40;;;;;;;;;;5005533;28;20044;-52
2022/07/16 08:29:42;;;;;;;3.22;1.30;;;;;;;;;;5010942;28;20406;-50
2022/07/16 08:32:08;;;;;;;1.60;1.05;;;;;;;;;;5006350;28;20040;-54
2022/07/16 08:34:35;;;;;;;3.75;1.55;;;;;;;;;;5006736;28;20513;-54
2022/07/16 08:37:01;;;;;;;2.08;1.13;;;;;;;;;;5008070;28;20054;-52
2022/07/16 08:39:27;;;;;;;4.93;1.70;;;;;;;;;;5009479;28;20018;-51
2022/07/16 08:41:53;;;;;;;5.05;1.50;;;;;;;;;;5010756;28;20037;-54
2022/07/16 08:44:19;;;;;;;3.83;1.48;;;;;;;;;;5009655;28;20021;-55
2022/07/16 08:46:46;;;;;;;2.95;0.80;;;;;;;;;;5003140;28;20034;-50
2022/07/16 08:49:12;;;;;;;4.82;1.20;;;;;;;;;;5002623;28;20032;-55
2022/07/16 08:51:39;;;;;;;3.00;1.42;;;;;;;;;;5006574;28;20050;-55
2022/07/16 08:54:18;;;;;;;3.47;1.23;;;;;;;;;;5005756;28;20026;-51
2022/07/16 08:56:44;;;;;;;3.92;1.90;;;;;;;;;;5007934;28;20034;-52
2022/07/16 08:59:11;;;;;;;3.13;1.05;;;;;;;;;;5001563;28;20479;-51
2022/07/16 09:01:37;;;;;;;3.20;1.20;;;;;;;;;;5005297;28;20105;-51
2022/07/16 09:04:04;;;;;;;3.30;1.63;;;;;;;;;;5002191;28;20018;-52
2022/07/16 09:06:30;;;;;;;2.67;1.20;;;;;;;;;;5003570;28;20097;-51
2022/07/16 09:09:00;;;;;;;3.33;0.90;;;;;;;;;;5006033;28;20121;-50
2022/07/16 09:11:28;;;;;;;2.78;1.23;;;;;;;;;;5005357;28;20037;-54
2022/07/16 09:14:05;;;;;;;2.55;0.82;;;;;;;;;;5004182;28;20372;-54
2022/07/16 09:16:40;;;;;;;1.38;0.88;;;;;;;;;;5005873;28;20096;-54
2022/07/16 09:19:15;;;;;;;3.20;1.00;;;;;;;;;;5000787;28;20030;-52
2022/07/16 09:22:01;;;;;;;2.53;0.80;;;;;;;;;;4987587;28;20387;-51
2022/07/16 09:24:47;;;;;;;3.78;1.00;;;;;;;;;;5009064;28;20033;-54
2022/07/16 09:27:15;;;;;;;2.97;0.80;;;;;;;;;;5010465;28;20090;-53
2022/07/16 09:29:44;;;;;;;1.85;1.08;;;;;;;;;;5011048;28;20040;-54
2022/07/16 09:32:10;;;;;;;2.00;1.17;;;;;;;;;;5009554;28;20025;-54
2022/07/16 09:34:37;;;;;;;2.67;1.13;;;;;;;;;;5003634;28;20165;-53
2022/07/16 09:37:04;;;;;;;3.47;0.95;;;;;;;;;;5012592;28;20402;-49
2022/07/16 09:39:31;;;;;;;3.30;1.10;;;;;;;;;;5012078;28;20103;-53
2022/07/16 09:41:57;;;;;;;3.00;1.00;;;;;;;;;;5011640;28;20042;-53
2022/07/16 09:44:24;;;;;;;2.95;0.95;;;;;;;;;;5010622;28;20022;-54
2022/07/16 09:47:01;;;;;;;3.00;1.08;;;;;;;;;;5013701;28;20061;-51
2022/07/16 09:49:27;;;;;;;3.67;0.90;;;;;;;;;;5006460;28;20042;-50
2022/07/16 09:51:54;;;;;;;1.25;1.08;;;;;;;;;;4997331;28;20053;-52
2022/07/16 09:54:27;;;;;;;1.70;1.10;;;;;;;;;;4992908;28;20097;-52
2022/07/16 09:57:13;;;;;;;2.03;1.00;;;;;;;;;;4990379;28;20030;-54
2022/07/16 09:59:39;;;;;;;2.50;0.63;;;;;;;;;;4987352;28;20045;-51
2022/07/16 10:02:05;;;;;;;1.95;1.00;;;;;;;;;;4991202;28;20353;-51
2022/07/16 10:04:31;;;;;;;2.00;1.08;;;;;;;;;;4990522;28;20479;-48
2022/07/16 10:06:58;;;;;;;2.25;0.77;;;;;;;;;;4990645;28;20065;-54
2022/07/16 10:09:24;;;;;;;2.45;1.33;;;;;;;;;;4989547;28;20141;-59
2022/07/16 10:11:51;;;;;;;2.65;1.05;;;;;;;;;;4989308;28;20030;-55
2022/07/16 10:14:17;;;;;;;3.42;1.00;;;;;;;;;;4991687;28;20027;-57
2022/07/16 10:16:47;;;;;;;2.10;1.50;;;;;;;;;;4989270;28;20487;-56
2022/07/16 10:19:13;;;;;;;6.05;1.10;;;;;;;;;;4985166;28;20081;-57
2022/07/16 10:21:40;;;;;;;2.28;1.10;;;;;;;;;;4991211;28;20088;-56
2022/07/16 10:24:10;;;;;;;3.97;1.00;;;;;;;;;;4990745;28;20133;-56
2022/07/16 10:26:37;;;;;;;1.55;0.80;;;;;;;;;;4990491;28;20037;-57
2022/07/16 10:29:04;;;;;;;1.90;1.10;;;;;;;;;;4987663;28;20027;-55
2022/07/16 10:31:30;;;;;;;1.80;1.20;;;;;;;;;;4990925;28;20093;-57
2022/07/16 10:34:15;;;;;;;2.33;1.00;;;;;;;;;;4984611;28;20037;-56
2022/07/16 10:36:48;;;;;;;3.60;1.00;;;;;;;;;;4991307;28;20603;-56
2022/07/16 10:39:15;;;;;;;4.25;1.35;;;;;;;;;;4990866;28;20088;-56
2022/07/16 10:41:51;;;;;;;1.45;0.82;;;;;;;;;;4991579;28;20427;-54
2022/07/16 10:44:17;;;;;;;1.65;0.90;;;;;;;;;;4990691;28;20053;-56
2022/07/16 10:46:52;;;;;;;5.30;1.00;;;;;;;;;;4992381;28;20349;-56
2022/07/16 10:49:19;;;;;;;2.22;0.98;;;;;;;;;;4990196;28;20033;-56
2022/07/16 10:51:58;;;;;;;2.55;1.00;;;;;;;;;;4991641;28;20050;-56
2022/07/16 10:54:25;;;;;;;1.77;0.88;;;;;;;;;;4991143;28;20053;-56
2022/07/16 10:56:51;;;;;;;2.45;0.85;;;;;;;;;;4992158;28;20026;-57
2022/07/16 10:59:22;;;;;;;1.95;0.82;;;;;;;;;;4988780;28;20027;-56
2022/07/16 11:01:49;;;;;;;1.40;0.70;;;;;;;;;;4973595;28;20027;-56
2022/07/16 11:04:16;;;;;;;1.73;1.25;;;;;;;;;;4989413;28;20157;-57
2022/07/16 11:06:47;;;;;;;1.95;1.02;;;;;;;;;;4991582;28;20076;-55
2022/07/16 11:09:13;;;;;;;3.13;0.90;;;;;;;;;;4987511;28;20034;-56
2022/07/16 11:11:41;;;;;;;1.92;0.63;;;;;;;;;;4990561;28;20034;-57
2022/07/16 11:14:09;;;;;;;1.65;0.80;;;;;;;;;;4989261;28;20026;-57
2022/07/16 11:16:35;;;;;;;3.85;0.80;;;;;;;;;;4991196;28;20034;-57
2022/07/16 11:19:02;;;;;;;2.97;1.05;;;;;;;;;;4989239;28;20096;-52
2022/07/16 11:21:28;;;;;;;4.93;1.13;;;;;;;;;;4990556;28;20084;-57
2022/07/16 11:23:55;;;;;;;3.10;0.80;;;;;;;;;;4993686;28;20030;-56
2022/07/16 11:26:24;;;;;;;1.10;0.77;;;;;;;;;;4987479;28;20722;-55
2022/07/16 11:28:54;;;;;;;1.67;0.80;;;;;;;;;;4990345;28;20030;-56
2022/07/16 11:31:24;;;;;;;2.30;0.90;;;;;;;;;;4987835;28;20038;-57
2022/07/16 11:33:51;;;;;;;1.25;0.70;;;;;;;;;;4993145;28;20033;-57
2022/07/16 11:36:17;;;;;;;2.67;0.88;;;;;;;;;;4989136;28;20026;-54
2022/07/16 11:38:43;;;;;;;1.58;0.90;;;;;;;;;;4987770;28;20427;-56
2022/07/16 11:41:10;;;;;;;1.55;0.80;;;;;;;;;;4987185;28;20038;-56
2022/07/16 11:43:36;;;;;;;1.25;0.65;;;;;;;;;;4987399;28;20165;-55
2022/07/16 11:46:02;;;;;;;3.70;1.08;;;;;;;;;;4986945;28;20027;-52
2022/07/16 11:48:38;;;;;;;1.20;0.65;;;;;;;;;;4988560;28;20025;-57
2022/07/16 11:51:10;;;;;;;3.45;1.17;;;;;;;;;;4995435;28;20477;-56
2022/07/16 11:53:39;;;;;;;1.83;1.00;;;;;;;;;;5002767;28;20510;-54
2022/07/16 11:56:06;;;;;;;2.92;0.90;;;;;;;;;;5006865;28;20034;-56
2022/07/16 11:58:32;;;;;;;0.95;0.68;;;;;;;;;;5008281;28;20025;-57
2022/07/16 12:00:58;;;;;;;2.00;0.65;;;;;;;;;;5010326;28;20026;-54
2022/07/16 12:03:25;;;;;;;3.20;0.98;;;;;;;;;;5009825;28;20034;-57
2022/07/16 12:06:04;;;;;;;2.00;1.25;;;;;;;;;;5046025;28;20420;-51
2022/07/16 12:08:32;;;;;;;3.15;1.20;;;;;;;;;;5043896;28;20041;-55
2022/07/16 12:10:59;;;;;;;5.03;2.05;;;;;;;;;;5045551;28;20029;-53
2022/07/16 12:13:26;;;;;;;2.55;0.80;;;;;;;;;;5043190;28;20033;-55
2022/07/16 12:15:52;;;;;;;3.13;0.80;;;;;;;;;;5043114;28;20046;-55
2022/07/16 12:18:18;;;;;;;2.20;1.00;;;;;;;;;;5044716;28;20760;-55
2022/07/16 12:20:44;;;;;;;1.58;0.75;;;;;;;;;;5045628;28;20509;-55
2022/07/16 12:23:11;;;;;;;1.60;1.30;;;;;;;;;;5043957;28;20036;-56
2022/07/16 12:25:38;;;;;;;1.92;1.15;;;;;;;;;;5047264;28;20032;-55
2022/07/16 12:28:08;;;;;;;2.35;1.40;;;;;;;;;;5049831;28;20036;-54
2022/07/16 12:30:37;;;;;;;4.80;1.33;;;;;;;;;;5042393;28;20474;-56
2022/07/16 12:33:25;;;;;;;2.05;0.90;;;;;;;;;;5044999;28;20392;-55
2022/07/16 12:35:53;;;;;;;3.95;1.25;;;;;;;;;;5046549;28;20091;-56
2022/07/16 12:38:37;;;;;;;1.90;1.00;;;;;;;;;;5042214;28;20033;-56
2022/07/16 12:41:04;;;;;;;2.55;0.98;;;;;;;;;;5042766;28;20039;-55
2022/07/16 12:43:30;;;;;;;1.80;0.90;;;;;;;;;;5045722;28;20029;-55
2022/07/16 12:45:56;;;;;;;4.47;2.03;;;;;;;;;;5043426;28;20080;-56
2022/07/16 12:48:22;;;;;;;2.65;1.05;;;;;;;;;;5044725;28;20025;-55
2022/07/16 12:50:48;;;;;;;2.97;1.10;;;;;;;;;;5044786;28;20028;-55
2022/07/16 12:53:14;;;;;;;1.67;0.98;;;;;;;;;;5044776;28;20021;-56
2022/07/16 13:01:10;;;;;;;2.03;1.05;;;;;;;;;;5042104;28;20068;-55
2022/07/16 13:03:36;;;;;;;3.40;0.85;;;;;;;;;;5045318;28;20021;-56
2022/07/16 13:06:03;;;;;;;2.53;1.13;;;;;;;;;;5045247;28;20036;-51
2022/07/16 13:08:29;;;;;;;2.72;0.82;;;;;;;;;;5038050;28;20096;-56
2022/07/16 13:10:55;;;;;;;2.20;0.88;;;;;;;;;;5044594;28;20509;-56
2022/07/16 13:13:21;;;;;;;2.50;1.38;;;;;;;;;;5047450;28;20046;-56
2022/07/16 13:15:47;;;;;;;1.65;1.10;;;;;;;;;;5041739;28;20021;-56
2022/07/16 13:18:13;;;;;;;1.75;0.93;;;;;;;;;;5031428;28;20037;-56
2022/07/16 13:20:39;;;;;;;1.67;0.88;;;;;;;;;;5031781;28;20021;-56
2022/07/16 13:23:05;;;;;;;1.83;0.80;;;;;;;;;;5027290;28;20064;-55
2022/07/16 13:25:31;;;;;;;1.65;0.70;;;;;;;;;;5030225;28;20029;-56
2022/07/16 13:27:58;;;;;;;2.03;1.00;;;;;;;;;;5029765;28;20026;-56
2022/07/16 13:30:24;;;;;;;1.30;0.80;;;;;;;;;;5028617;28;20056;-56
2022/07/16 13:32:50;;;;;;;0.80;0.70;;;;;;;;;;5028689;28;20060;-56
2022/07/16 13:35:17;;;;;;;1.00;0.63;;;;;;;;;;5028927;28;20134;-56
2022/07/16 13:37:43;;;;;;;1.00;0.70;;;;;;;;;;5035524;28;20025;-55
2022/07/16 13:40:09;;;;;;;3.80;0.90;;;;;;;;;;5032276;28;20029;-53
2022/07/16 13:42:35;;;;;;;2.53;0.98;;;;;;;;;;5032105;28;20029;-56
2022/07/16 13:45:01;;;;;;;2.25;1.00;;;;;;;;;;5030180;28;20072;-50
2022/07/16 13:47:27;;;;;;;1.17;0.80;;;;;;;;;;5029784;28;20061;-56
2022/07/16 13:49:53;;;;;;;2.38;0.70;;;;;;;;;;5018138;28;20454;-54
2022/07/16 13:52:19;;;;;;;1.17;1.00;;;;;;;;;;5029324;28;20386;-57
2022/07/16 13:54:45;;;;;;;3.40;0.80;;;;;;;;;;5030790;28;20041;-55
2022/07/16 13:59:56;;;;;;;2.40;0.73;;;;;;;;;;5033063;28;20067;-55
2022/07/16 14:02:22;;;;;;;1.85;0.80;;;;;;;;;;5028218;28;20053;-57
2022/07/16 14:04:49;;;;;;;3.47;0.65;;;;;;;;;;5031837;28;20127;-57
2022/07/16 14:07:16;;;;;;;2.05;1.27;;;;;;;;;;5026894;28;20052;-54
2022/07/16 14:09:42;;;;;;;2.92;0.88;;;;;;;;;;5037701;28;20128;-52
2022/07/16 14:12:08;;;;;;;1.95;0.70;;;;;;;;;;5024755;28;20444;-55
2022/07/16 14:14:34;;;;;;;1.42;0.60;;;;;;;;;;5033007;28;20044;-58
2022/07/16 14:17:00;;;;;;;3.38;0.80;;;;;;;;;;5029799;28;20044;-50
2022/07/16 14:19:26;;;;;;;2.13;0.85;;;;;;;;;;5033172;28;20105;-59
2022/07/16 14:21:52;;;;;;;1.83;0.70;;;;;;;;;;5030219;28;20510;-57
2022/07/16 14:24:18;;;;;;;1.42;0.80;;;;;;;;;;5031036;28;20132;-58
2022/07/16 14:26:44;;;;;;;2.42;0.73;;;;;;;;;;5029254;28;20451;-54
2022/07/16 14:29:10;;;;;;;1.55;0.85;;;;;;;;;;5026239;28;20029;-56
2022/07/16 14:31:36;;;;;;;1.52;0.70;;;;;;;;;;5031057;28;20018;-54
2022/07/16 14:34:02;;;;;;;1.70;0.55;;;;;;;;;;5029930;28;20040;-49
2022/07/16 14:36:28;;;;;;;1.05;0.80;;;;;;;;;;5027983;28;20034;-53
2022/07/16 14:38:54;;;;;;;2.88;0.90;;;;;;;;;;5032448;28;20028;-54
2022/07/16 14:41:20;;;;;;;1.67;0.70;;;;;;;;;;5026058;28;20624;-55
2022/07/16 14:43:46;;;;;;;2.83;0.70;;;;;;;;;;5030391;28;20036;-58
2022/07/16 14:46:13;;;;;;;4.90;1.25;;;;;;;;;;5031426;28;20045;-54
2022/07/16 14:48:39;;;;;;;1.83;0.70;;;;;;;;;;5031307;28;20389;-54
2022/07/16 14:51:05;;;;;;;0.93;0.77;;;;;;;;;;5032210;28;20037;-52
2022/07/16 14:53:31;;;;;;;1.45;0.70;;;;;;;;;;5027858;28;20079;-48
2022/07/16 14:55:57;;;;;;;2.17;0.88;;;;;;;;;;5031523;28;20030;-55
2022/07/16 14:58:23;;;;;;;2.35;0.65;;;;;;;;;;5029134;28;20047;-51